Sonic Adventure (DX): Time Rankings

Records: Times | Rings | Scores | Races | Bosses | Freestyle
Leaders: Times | Rings | Scores | Races | Bosses | Freestyle | Overall
Rank Player Percent Points Date
1 Gamepro011 99.1% 49 08-15-19
2 Sonicspeedruner 98.0% 113 08-15-19
3 Niczur 95.3% 271 08-15-19
4 Dashjump 94.1% 337 08-15-19
5 Jawzun 94.1% 338 08-15-19
6 DarkPolarNight 93.2% 393 08-15-19
7 drminus 90.9% 521 08-15-19
8 F-Man 90.9% 526 08-15-19
9 THC98 90.4% 550 08-15-19
10 ike6252 88.5% 664 08-15-19
11 Avento128bits 88.1% 683 08-15-19
12 francisco 87.8% 706 08-15-19
13 DarkspinesSonic 87.2% 736 08-15-19
14 ethmar 87.2% 738 08-15-19
15 Marth 87.2% 739 08-15-19
16 frankoredstrato 85.8% 820 08-15-19
17 chainchump 84.2% 913 08-15-19
17 TheRealShadnic 84.2% 913 08-15-19
19 Paragod 82.9% 987 08-15-19
20 HyperSonic7701 82.8% 994 08-15-19
21 Calfd 82.4% 1018 08-15-19
22 Nim 80.9% 1104 08-15-19
23 Coolfansonic 79.7% 1170 08-15-19
24 InferSaime 79.5% 1184 08-15-19
25 Stefan 78.2% 1259 08-15-19
26 xXMegaManXx 78.1% 1266 08-15-19
27 PfoSonic 77.6% 1291 08-15-19
28 bertin 75.9% 1393 08-15-19
29 yoshifan 75.5% 1413 08-15-19
30 Dave Cramer 73.8% 1511 08-15-19
31 RPGnutter 73.6% 1523 08-15-19
32 sonicam 72.1% 1614 08-15-19
33 Cybrax 71.7% 1637 08-15-19
34 Ring Rush 69.1% 1786 08-15-19
35 mike89 68.3% 1833 08-15-19
36 NintenDan 68.1% 1844 08-15-19
37 chaos shadow 68.0% 1852 08-15-19
38 a_moustache 67.0% 1909 08-15-19
39 Dekuboy 66.0% 1964 08-15-19
40 SkyLights 64.6% 2046 08-15-19
41 Combo 63.2% 2128 08-15-19
42 SADXTryHard 60.7% 2271 08-15-19
43 P1 Pause 60.2% 2302 08-15-19
44 WeegeeZV 59.1% 2363 08-15-19
45 Groudon199 58.4% 2404 08-15-19
46 AxlThunder 57.9% 2432 08-15-19
47 Game_Complete 57.8% 2438 08-15-19
48 Shadow Jacky 57.6% 2453 08-15-19
49 VMU Player Banned 56.8% 2496 08-15-19
50 Thorn 56.5% 2517 08-15-19
51 SB737 55.3% 2587 08-15-19
52 The Knuckles Chao 55.1% 2595 08-15-19
53 SadisticMystic 54.9% 2609 08-15-19
54 Chao_Fan 54.8% 2611 08-15-19
55 Parax 54.7% 2618 08-15-19
56 Mastakirby 54.4% 2637 08-15-19
57 KinkyCadence 53.9% 2663 08-15-19
58 mauserman 53.9% 2666 08-15-19
59 LittleBigness 53.9% 2667 08-15-19
60 OmegaDJ 53.8% 2673 08-15-19
61 Psyknux 53.6% 2683 08-15-19
62 Auriman1 53.2% 2706 08-15-19
63 magnum12 53.0% 2717 08-15-19
64 Turbos 52.6% 2741 08-15-19
65 GerbilSoft 52.0% 2777 08-15-19
66 GreatStar 51.7% 2794 08-15-19
67 Webber3000 51.2% 2819 08-15-19
68 Hipertails12 50.8% 2843 08-15-19
69 N 50.5% 2861 08-15-19
70 James_Bertolli 48.3% 2992 08-15-19
71 Cream147 47.8% 3019 08-15-19
72 welldooder64 47.1% 3059 08-15-19
73 Skylace 47.0% 3063 08-15-19
74 Omega Rafael Santos 46.9% 3071 08-15-19
75 Quartz 46.7% 3084 08-15-19
76 Diamond 46.6% 3087 08-15-19
77 Psymar 46.4% 3099 08-15-19
78 SonicWinDX 46.0% 3125 08-15-19
79 teamblackarms 45.4% 3159 08-15-19
80 Cyan Ryan 44.8% 3193 08-15-19
81 Andrea Ritsu 44.6% 3204 08-15-19
82 buddychaos0415 44.5% 3208 08-15-19
83 SilverSonic 44.1% 3233 08-15-19
84 paulie9990 43.5% 3265 08-15-19
85 SilvertheAlmighty 43.4% 3275 08-15-19
86 itsPersonnal 43.0% 3296 08-15-19
87 metanightmare22 42.5% 3324 08-15-19
88 CoEmpathy 40.9% 3420 08-15-19
89 lordmetalsonic 40.3% 3450 08-15-19
90 Arch 40.0% 3469 08-15-19
91 SPVLABS 39.6% 3492 08-15-19
92 Termon 39.3% 3510 08-15-19
93 videogamemaster777 39.0% 3526 08-15-19
94 supersonicfan 38.7% 3545 08-15-19
95 Drakodan 38.4% 3561 08-15-19
96 Kanimayo_Jp 38.1% 3578 08-15-19
97 LilZero 37.8% 3595 08-15-19
98 FuzZerd 37.6% 3611 08-15-19
99 supersonic465 37.5% 3615 08-15-19
100 JamminX42 37.0% 3646 08-15-19
101 eggFL 36.8% 3653 08-15-19
102 BigAL49 36.7% 3661 08-15-19
103 Don 36.5% 3671 08-15-19
104 danieldude 36.2% 3691 08-15-19
105 Fr3nZy 35.3% 3740 08-15-19
106 Siavash Tazari 35.2% 3749 08-15-19
107 Cod4Scopes 34.4% 3793 08-15-19
108 f0rever_zer0 34.3% 3798 08-15-19
109 Zurggriff 34.3% 3802 08-15-19
110 Austinf 33.5% 3847 08-15-19
111 Therio 33.4% 3852 08-15-19
112 LinksDarkArrows 33.2% 3862 08-15-19
113 elecmouse101 32.6% 3900 08-15-19
114 Staf 32.2% 3923 08-15-19
115 R3FR4G 32.0% 3934 08-15-19
116 ModifiedMonkee 31.9% 3936 08-15-19
117 MiStEr_ShAoLiN 31.8% 3944 08-15-19
118 BrokenArthritis 31.6% 3958 08-15-19
119 Twilisailor 31.4% 3967 08-15-19
120 videogamer1014 31.4% 3970 08-15-19
121 Xia 30.8% 4000 08-15-19
122 AC-Tygo 30.4% 4023 08-15-19
123 welshmoose05 30.4% 4028 08-15-19
124 OddCook 29.6% 4071 08-15-19
125 The Great Lord Mick 29.4% 4084 08-15-19
126 Mcshuggets 29.3% 4092 08-15-19
127 Aitamen 29.1% 4103 08-15-19
128 Maxinfamily 29.0% 4104 08-15-19
129 joecoolgames 28.7% 4126 08-15-19
130 Matt_TY 28.5% 4138 08-15-19
131 SuperBlitzCraig 28.2% 4152 08-15-19
132 dabestgamer 28.1% 4156 08-15-19
133 Irregular Zero 28.1% 4157 08-15-19
134 SuperSonic101 27.2% 4209 08-15-19
135 Shadowthegreat 26.8% 4232 08-15-19
136 superjupi 26.8% 4236 08-15-19
137 Hunters13 26.7% 4241 08-15-19
138 thewaytodawnnn 26.5% 4251 08-15-19
139 Rolken 26.4% 4259 08-15-19
140 SaviourDC 26.0% 4281 08-15-19
141 iarebored 26.0% 4283 08-15-19
142 sonamyfan666 25.9% 4285 08-15-19
143 koinu93 25.8% 4291 08-15-19
144 SonicKnuckles 25.7% 4300 08-15-19
145 Spinballwizard 25.6% 4302 08-15-19
146 EngiNerd 24.5% 4369 08-15-19
147 adf 24.4% 4371 08-15-19
148 Megaman EXE565 23.6% 4420 08-15-19
149 The T 23.5% 4426 08-15-19
150 Sonic Singularity 22.9% 4462 08-15-19
151 Platformer 22.8% 4468 08-15-19
152 Pokemonmaster888 22.7% 4473 08-15-19
153 SeaWolf 22.6% 4478 08-15-19
154 Swift Hobo 22.2% 4498 08-15-19
155 timpkmn89 22.2% 4500 08-15-19
156 Rickyman48 21.5% 4542 08-15-19
157 Sondow 21.4% 4549 08-15-19
158 FoxBoy 20.9% 4577 08-15-19
159 Sm4sh 20.8% 4581 08-15-19
160 KitsuneYamaro 20.7% 4586 08-15-19
161 TFEC Headshot 20.5% 4600 08-15-19
162 Jerzia 20.3% 4611 08-15-19
163 Kogen Player Banned 19.8% 4641 08-15-19
164 Starlight Sable 19.7% 4643 08-15-19
165 iden1 19.3% 4668 08-15-19
166 IsisDazs 19.2% 4674 08-15-19
167 Powerjohn25 18.9% 4692 08-15-19
168 HyperSonic64 18.8% 4696 08-15-19
169 crazy1993 18.6% 4707 08-15-19
170 andres430 18.3% 4728 08-15-19
171 SonicU260 17.2% 4789 08-15-19
172 Swinkly 17.2% 4790 08-15-19
173 sonicd5 16.9% 4805 08-15-19
174 MPit08 16.9% 4808 08-15-19
174 SonicAD 16.9% 4808 08-15-19
176 iSonicKid2K 16.2% 4847 08-15-19
177 dShadow 16.0% 4858 08-15-19
178 Miles9999 15.8% 4873 08-15-19
179 Chawkk 15.6% 4880 08-15-19
179 Cutiefox 15.6% 4880 08-15-19
181 Crispian 15.4% 4892 08-15-19
182 Monkeh 15.4% 4895 08-15-19
183 DaDude 15.0% 4918 08-15-19
184 Drflash55 14.6% 4938 08-15-19
185 Badlex727 14.6% 4942 08-15-19
186 Bass 14.3% 4960 08-15-19
187 Yish 14.2% 4963 08-15-19
188 Cruizer 14.1% 4971 08-15-19
189 neaolas 14.0% 4972 08-15-19
190 Destroyer121121 14.0% 4976 08-15-19
190 zapp 14.0% 4976 08-15-19
192 UninspiredUsername 13.9% 4979 08-15-19
193 superiorsonic 13.7% 4990 08-15-19
194 gamefreak1292 13.6% 4997 08-15-19
195 Sora_yx 13.1% 5028 08-15-19
196 Cooljay 13.1% 5029 08-15-19
197 Chaos_Overlord 12.5% 5061 08-15-19
198 Valfore 12.1% 5083 08-15-19
199 Dage4Aquatic 11.8% 5101 08-15-19
200 GarnetPrincess 11.7% 5107 08-15-19
201 ShinigamiMachine 11.6% 5113 08-15-19
202 soniccoloursunleashed 11.5% 5117 08-15-19
203 Sonicsuperstar1 11.2% 5139 08-15-19
204 FocusSight64 10.7% 5163 08-15-19
205 Werey 10.7% 5165 08-15-19
206 booo95 10.6% 5173 08-15-19
207 Mo Player Banned 10.5% 5180 08-15-19
208 SirTobbii 10.4% 5181 08-15-19
209 Jua Rever 10.4% 5186 08-15-19
210 sonicspeed 10.2% 5195 08-15-19
211 Venick409 9.6% 5231 08-15-19
212 Sithwarrior26 9.4% 5239 08-15-19
213 nman36 9.4% 5240 08-15-19
214 ingx24 9.0% 5267 08-15-19
215 CyberShadow 8.9% 5271 08-15-19
216 dekki1234 8.5% 5292 08-15-19
217 Fozer 8.4% 5301 08-15-19
218 Egor305 8.3% 5305 08-15-19
219 Regano1000 8.2% 5312 08-15-19
220 Colomb_30 8.2% 5313 08-15-19
221 1stKirbyever 8.0% 5324 08-15-19
222 nuckrieg 7.7% 5340 08-15-19
223 TimTH 7.6% 5343 08-15-19
224 Brian_pso 7.6% 5346 08-15-19
225 douglas 7.3% 5364 08-15-19
226 TakaRikka 7.3% 5365 08-15-19
227 Th4tN1nj4Turtl3 7.2% 5368 08-15-19
228 Zip 7.1% 5377 08-15-19
229 Mariosonic15 6.8% 5391 08-15-19
230 wheatrich 6.7% 5396 08-15-19
231 MStitomix 6.6% 5403 08-15-19
232 HermitHelmet 6.5% 5408 08-15-19
232 ieatatsonic 6.5% 5408 08-15-19
234 niscool 6.4% 5413 08-15-19
235 Cort_pso 6.2% 5425 08-15-19
236 Got4n 6.2% 5429 08-15-19
237 Triseena 6.0% 5440 08-15-19
238 Jose_15 5.9% 5444 08-15-19
239 SuperSonicfan9595 5.7% 5457 08-15-19
240 Artie 5.7% 5458 08-15-19
240 BlankTH 5.7% 5458 08-15-19
242 Ace747 5.4% 5473 08-15-19
242 HHNNBBHHN 5.4% 5473 08-15-19
244 Richied 5.3% 5481 08-15-19
245 Paixii 5.2% 5485 08-15-19
246 Aiko 5.1% 5490 08-15-19
247 BallzeH 4.8% 5505 08-15-19
248 FSSRandomvids 4.8% 5507 08-15-19
248 slade23 4.8% 5507 08-15-19
250 PsyBorg 4.8% 5510 08-15-19
251 Mankster101 4.7% 5512 08-15-19
252 ArcticDragon 4.7% 5513 08-15-19
252 Jamixesa 4.7% 5513 08-15-19
254 BecauseWarAnvil 4.6% 5516 08-15-19
255 Nickson98 4.5% 5524 08-15-19
256 Crydio 4.5% 5526 08-15-19
257 TheUltraBlur 4.4% 5532 08-15-19
258 MarewBFN 4.2% 5544 08-15-19
259 stanski 4.1% 5546 08-15-19
260 tal39h 4.0% 5551 08-15-19
261 knuckles_sonic8 3.9% 5560 08-15-19
262 Blue Infamy 3.9% 5562 08-15-19
263 p0ker 3.8% 5565 08-15-19
264 ALundstrom10 3.8% 5566 08-15-19
265 ErrortheCucco 3.7% 5573 08-15-19
266 Rikum22 3.6% 5576 08-15-19
267 sonic1001 3.5% 5584 08-15-19
268 TheChaosEmeraIds 3.4% 5589 08-15-19
269 AJSIV 3.4% 5591 08-15-19
269 syco1098 3.4% 5591 08-15-19
271 Sonic the Hedgehod16 3.3% 5594 08-15-19
272 ASINISTERTACO 3.2% 5602 08-15-19
273 sonicfan9 3.1% 5607 08-15-19
274 themachoman202 2.9% 5618 08-15-19
275 MK 2.8% 5624 08-15-19
276 Fivavoa 2.7% 5627 08-15-19
277 Mr. Jones 2.7% 5629 08-15-19
278 djmat 2.7% 5631 08-15-19
279 arcfx1985 2.6% 5632 08-15-19
279 BlackArmsShadow 2.6% 5632 08-15-19
281 Sonique Hedgehog 2.6% 5635 08-15-19
282 ptorflaxendrosis 2.6% 5636 08-15-19
283 FlandreScarlet9999vr 2.5% 5639 08-15-19
284 Zeldocto 2.5% 5642 08-15-19
285 BeeAwwb 2.4% 5647 08-15-19
286 KaM Mark MaK 2.3% 5650 08-15-19
287 ShadouZaHejjihoggu 2.3% 5653 08-15-19
288 darkstarblaze 2.2% 5659 08-15-19
289 Sonic The Star 2.1% 5661 08-15-19
290 darkersupershadic 2.1% 5662 08-15-19
291 SpiritDragon1995 2.1% 5663 08-15-19
292 Sarger001 2.0% 5669 08-15-19
292 sonic29887 2.0% 5669 08-15-19
294 Grady219 2.0% 5671 08-15-19
295 Jawaah 1.9% 5675 08-15-19
295 shadowblast63 Player Banned 1.9% 5675 08-15-19
297 Antek 1.8% 5679 08-15-19
298 Klaus 1.8% 5681 08-15-19
299 BioShadow 1.7% 5688 08-15-19
300 Shanekilz 1.4% 5704 08-15-19
301 SkyBon 1.4% 5705 08-15-19
302 isaihtb11 1.3% 5709 08-15-19
302 OhNoes! 1.3% 5709 08-15-19
304 zaktu40 1.3% 5711 08-15-19
305 ArthurVGCP 1.2% 5713 08-15-19
306 gaara1234 1.2% 5715 08-15-19
306 S-MS32X-S 1.2% 5715 08-15-19
308 MastaToken 1.1% 5722 08-15-19
309 Mister_Slick 1.0% 5725 08-15-19
310 Sonic06Fan 1.0% 5730 08-15-19
311 Rush Hero 0.9% 5731 08-15-19
312 ChaosNexuss 0.9% 5732 08-15-19
313 oTaiIilLsS 0.8% 5736 08-15-19
314 SonicMega167 0.8% 5737 08-15-19
315 gamed00d 0.8% 5740 08-15-19
315 SilverK 0.8% 5740 08-15-19
317 Burningskull123 0.5% 5756 08-15-19
318 Heroes_Hater 0.5% 5758 08-15-19
319 Sonicontherun 0.3% 5767 08-15-19
320 antiwwe 0.2% 5773 08-15-19
321 Iwannabelink 0.2% 5775 08-15-19
322 Genuine Hedgehog 0.1% 5777 08-15-19
323 dragondragon18 0.1% 5781 08-15-19
324 SonicK100 0.1% 5782 08-15-19
325 Tyrouble 0.0% 5787 08-15-19
326 LancexExWx 0.0% 5788 08-15-19
326 neji_hyuuga 0.0% 5788 08-15-19
326 Over 0.0% 5788 08-15-19
326 sdj6707 Player Banned 0.0% 5788 08-15-19
326 Tran Sonic Fan Player Banned 0.0% 5788 08-15-19

This page is using the New Data Table System. [FUTURE]

Game ID: 3 | Category ID: 1
Hits: 9,458 | Hits This Month: 28 | DB Calls: 24 | Mem Usage: 5.88 MB | Time: 0.25s | Printable

The Sonic Center v3.9
Copyright 2003-2011 by The Sonic Center Team.